International Virtual Aviation Organisation

Russian Federation and Kazakhstan MCD

 
UOOO 041100Z 19011MPS 0800 0750NE R19/1800N SN BLSN OVC022 M11/M12 Q1014 R19/420340 NOSIG RMK QFE744/0993
QNH:(hPa/inHg/mmHg)1014 / 29.94 / 761
QFE:(hPa/inHg/mmHg)993 / 29.32 / 745
Temperature-11
Dew Point-12
Visibility0750
WeatherSnow;Blowing Snow
Cloud CoverOVC (2200);
Transition Height1200 m./4600 ft.
Transition LevelFL60
SQUAWK